Dubois, Wyoming
Current Conditions -  °F | °C
As of 6:15 PM on Sunday 23 Nov 2014 (Local Time) from KDUB Reporting Station
Clear Clear  
Wind Chill:   Ceiling: Unl
Heat Index: 23°   Visibility: 10mi
Dew Point: 10°   Wind: 21mph
Humidity: 59%   Direction: 290°WNW
Pressure: 29.93"   Gusts: 38mph
Location:  43.53°N, 109.63°W
Report Text: KDUB 240115Z AUTO 29018G33KT 10SM CLR M05/M12 A2993 RMK AO2
Loading
Personal Weather Stations






























Interactive Weather Map New forecast layout! Learn more

10-Day Weather Forecast

Advertisements
Track Severe Weather on mobile